Time;durP1;ratioP1;P1;durP2;ratioP2;P2;SDS_P1;SDS_P2;PMS_P1;PMS_P2;Temp;Humidity;BMP_temperature;BMP_pressure;BME280_temperature;BME280_humidity;BME280_pressure;Samples;Min_cycle;Max_cycle;Signal;HPM_P1;HPM_P2
2022/09/03 00:01:44;;;;;;;8.53;6.53;;;27.50;99.90;;;;;;1901151;74;21206;-84
2022/09/03 00:04:17;;;;;;;7.60;6.17;;;27.50;99.90;;;;;;1888240;74;21107;-85
2022/09/03 00:06:52;;;;;;;10.45;6.70;;;27.50;99.90;;;;;;1901758;74;21245;-80
2022/09/03 00:09:25;;;;;;;10.38;6.53;;;27.50;99.90;;;;;;1892521;74;21138;-82
2022/09/03 00:11:58;;;;;;;9.10;6.47;;;;;;;;;;1902726;74;21231;-72
2022/09/03 00:14:30;;;;;;;7.12;6.15;;;;;;;;;;1919261;73;21142;-75
2022/09/03 00:17:02;;;;;;;7.87;5.95;;;;;;;;;;1898711;74;21833;-72
2022/09/03 00:19:33;;;;;;;8.58;6.83;;;;;;;;;;1927853;73;21126;-73
2022/09/03 00:22:06;;;;;;;12.35;7.05;;;;;;;;;;1901817;74;21160;-73
2022/09/03 00:24:37;;;;;;;11.43;7.53;;;;;;;;;;1903104;74;21121;-73
2022/09/03 00:27:09;;;;;;;10.18;6.90;;;;;;;;;;1918821;74;21074;-73
2022/09/03 00:29:41;;;;;;;10.18;7.10;;;;;;;;;;1914091;75;21201;-73
2022/09/03 00:32:12;;;;;;;8.83;6.87;;;;;;;;;;1915024;73;21134;-72
2022/09/03 00:34:44;;;;;;;9.93;7.15;;;;;;;;;;1916434;73;21575;-73
2022/09/03 00:37:15;;;;;;;10.75;7.70;;;;;;;;;;1894616;74;21147;-73
2022/09/03 00:39:46;;;;;;;11.03;8.08;;;;;;;;;;1881960;74;21206;-74
2022/09/03 00:42:16;;;;;;;9.58;7.90;;;;;;;;;;1924691;73;21112;-74
2022/09/03 00:44:48;;;;;;;12.25;7.95;;;;;;;;;;1890857;74;21457;-72
2022/09/03 00:47:20;;;;;;;9.58;7.22;;;;;;;;;;1930973;73;21181;-71
2022/09/03 00:49:53;;;;;;;10.88;6.92;;;;;;;;;;1926543;73;21171;-72
2022/09/03 00:52:24;;;;;;;7.45;6.33;;;;;;;;;;1930658;73;21088;-72
2022/09/03 00:54:57;;;;;;;8.83;7.08;;;;;;;;;;1931299;73;21147;-72
2022/09/03 00:57:29;;;;;;;11.83;6.03;;;;;;;;;;1929134;73;21067;-72
2022/09/03 01:00:01;;;;;;;8.30;6.47;;;;;;;;;;1926355;73;21131;-71
2022/09/03 01:02:32;;;;;;;7.65;5.92;;;;;;;;;;1930283;73;21606;-73
2022/09/03 01:05:04;;;;;;;8.20;6.28;;;;;;;;;;1906091;74;21159;-72
2022/09/03 01:07:36;;;;;;;10.68;6.80;;;;;;;;;;1905959;74;21139;-73
2022/09/03 01:10:08;;;;;;;8.83;6.65;;;;;;;;;;1923188;73;21115;-71
2022/09/03 01:12:39;;;;;;;10.23;6.95;;;;;;;;;;1919310;73;21092;-73
2022/09/03 01:15:11;;;;;;;10.40;6.72;;;;;;;;;;1930320;73;21130;-73
2022/09/03 01:17:42;;;;;;;9.48;6.00;;;;;;;;;;1917735;73;21137;-73
2022/09/03 01:20:12;;;;;;;8.30;6.20;;;;;;;;;;1920424;73;21151;-73
2022/09/03 01:22:43;;;;;;;9.28;6.45;;;;;;;;;;1918871;73;21147;-74
2022/09/03 01:25:16;;;;;;;8.63;6.17;;;;;;;;;;1916829;73;21119;-73
2022/09/03 01:27:47;;;;;;;8.38;6.08;;;;;;;;;;1927053;73;21504;-71
2022/09/03 01:30:19;;;;;;;9.90;7.03;;;;;;;;;;1879395;74;21173;-85
2022/09/03 01:32:52;;;;;;;8.55;6.42;;;;;;;;;;1895911;74;21197;-83
2022/09/03 01:35:23;;;;;;;8.45;5.75;;;;;;;;;;1882621;74;21080;-84
2022/09/03 01:37:57;;;;;;;10.68;6.87;;;;;;;;;;1884769;74;21168;-84
2022/09/03 01:40:27;;;;;;;9.00;5.50;;;;;;;;;;1922621;73;21197;-86
2022/09/03 01:43:00;;;;;;;7.03;6.15;;;;;;;;;;1920845;73;21135;-84
2022/09/03 01:45:30;;;;;;;7.53;6.03;;;;;;;;;;1882262;74;21121;-83
2022/09/03 01:48:01;;;;;;;8.10;6.72;;;;;;;;;;1917440;73;21119;-84
2022/09/03 01:50:33;;;;;;;9.55;6.45;;;;;;;;;;1914067;73;21233;-84
2022/09/03 01:53:03;;;;;;;8.03;5.75;;;;;;;;;;1877195;76;21606;-84
2022/09/03 01:55:33;;;;;;;8.03;5.75;;;;;;;;;;1923466;73;21052;-84
2022/09/03 01:58:05;;;;;;;7.87;5.95;;;;;;;;;;1942358;73;21188;-84
2022/09/03 02:00:37;;;;;;;7.47;5.85;;;;;;;;;;1899859;74;21178;-83
2022/09/03 02:03:09;;;;;;;7.40;6.03;;;;;;;;;;1922440;73;21123;-84
2022/09/03 02:05:42;;;;;;;8.70;6.00;;;;;;;;;;1910497;73;21215;-85
2022/09/03 02:08:11;;;;;;;8.00;6.33;;;;;;;;;;1910735;74;21108;-84
2022/09/03 02:10:42;;;;;;;10.70;6.90;;;;;;;;;;1911453;74;21124;-85
2022/09/03 02:13:14;;;;;;;9.00;6.50;;;;;;;;;;1889301;76;21134;-85
2022/09/03 02:15:46;;;;;;;10.58;7.40;;;;;;;;;;1891015;76;21118;-86
2022/09/03 02:18:17;;;;;;;10.98;6.25;;;;;;;;;;1924946;74;21082;-84
2022/09/03 02:20:49;;;;;;;8.83;5.75;;;;;;;;;;1893883;74;21170;-86
2022/09/03 02:23:24;;;;;;;7.15;6.33;;;;;;;;;;1919424;74;21115;-84
2022/09/03 02:25:57;;;;;;;10.90;9.75;;;;;;;;;;1931760;73;21157;-84
2022/09/03 02:28:28;;;;;;;7.55;6.37;;;;;;;;;;1929257;74;21103;-86
2022/09/03 02:30:59;;;;;;;8.88;6.58;;;;;;;;;;1931198;73;21150;-85
2022/09/03 02:33:32;;;;;;;9.15;6.50;;;;;;;;;;1907397;74;21143;-85
2022/09/03 02:36:03;;;;;;;9.93;6.67;;;;;;;;;;1923624;74;21119;-84
2022/09/03 02:38:33;;;;;;;7.70;6.40;;;;;;;;;;1925700;74;21193;-86
2022/09/03 02:41:03;;;;;;;9.38;6.65;;;;;;;;;;1925731;73;21205;-86
2022/09/03 02:43:36;;;;;;;8.03;6.42;;;;;;;;;;1923364;74;21125;-85
2022/09/03 02:46:07;;;;;;;10.10;6.83;;;;;;;;;;1925245;74;21591;-85
2022/09/03 02:48:38;;;;;;;10.45;6.70;;;;;;;;;;1935978;73;21184;-85
2022/09/03 02:51:08;;;;;;;10.72;6.80;;;;;;;;;;1892910;74;21096;-84
2022/09/03 02:53:40;;;;;;;9.58;7.20;;;;;;;;;;1889901;74;21663;-84
2022/09/03 02:56:11;;;;;;;8.85;7.15;;;;;;;;;;1890498;74;21164;-84
2022/09/03 02:58:41;;;;;;;9.30;6.55;;;;;;;;;;1894340;76;21248;-85
2022/09/03 03:01:11;;;;;;;7.78;6.45;;;;;;;;;;1931008;73;21154;-84
2022/09/03 03:03:43;;;;;;;9.93;7.12;;;;;;;;;;1902033;73;21144;-85
2022/09/03 03:06:13;;;;;;;7.03;6.30;;;;;;;;;;1921838;74;21621;-84
2022/09/03 03:08:44;;;;;;;8.33;6.30;;;;;;;;;;1938037;73;21177;-84
2022/09/03 03:11:17;;;;;;;12.23;6.83;;;;;;;;;;1928238;74;21213;-84
2022/09/03 03:13:46;;;;;;;10.60;7.72;;;;;;;;;;1927233;74;21546;-85
2022/09/03 03:16:17;;;;;;;11.30;7.30;;;;;;;;;;1923987;74;21944;-85
2022/09/03 03:18:48;;;;;;;10.15;6.70;;;;;;;;;;1930062;73;21152;-85
2022/09/03 03:21:18;;;;;;;9.35;6.85;;;;;;;;;;1927469;73;21192;-83
2022/09/03 03:23:48;;;;;;;10.85;6.95;;;;;;;;;;1924691;74;21193;-85
2022/09/03 03:26:19;;;;;;;8.88;6.78;;;;;;;;;;1923598;74;21165;-85
2022/09/03 03:28:53;;;;;;;7.33;5.83;;;;;;;;;;1922941;73;21206;-84
2022/09/03 03:31:23;;;;;;;7.45;5.60;;;;;;;;;;1923088;73;21435;-84
2022/09/03 03:33:54;;;;;;;6.92;5.25;;;;;;;;;;1929258;74;21124;-84
2022/09/03 03:36:26;;;;;;;6.45;5.10;;;;;;;;;;1890096;74;21145;-85
2022/09/03 03:38:57;;;;;;;7.78;5.12;;;;;;;;;;1887468;74;21157;-85
2022/09/03 03:41:30;;;;;;;7.80;5.30;;;;;;;;;;1887537;74;21084;-85
2022/09/03 03:44:04;;;;;;;4.95;4.37;;;;;;;;;;1887040;74;21233;-85
2022/09/03 03:46:36;;;;;;;5.72;4.45;;;;;;;;;;1887272;74;21228;-83
2022/09/03 03:49:09;;;;;;;7.65;4.97;;;;;;;;;;1895450;74;21224;-83
2022/09/03 03:51:39;;;;;;;6.15;5.12;;;;;;;;;;1892265;74;21092;-84
2022/09/03 03:54:09;;;;;;;7.37;4.80;;;;;;;;;;1904078;72;21113;-86
2022/09/03 03:56:41;;;;;;;8.53;5.25;;;;;;;;;;1892904;74;21181;-86
2022/09/03 03:59:13;;;;;;;5.67;4.78;;;;;;;;;;1890142;74;21258;-85
2022/09/03 04:01:43;;;;;;;7.28;5.60;;;;;;;;;;1880194;74;21171;-84
2022/09/03 04:04:16;;;;;;;9.53;5.95;;;;;;;;;;1907625;74;21128;-84
2022/09/03 04:06:47;;;;;;;11.20;6.53;;;;;;;;;;1902555;74;21225;-84
2022/09/03 04:09:18;;;;;;;9.50;6.72;;;;;;;;;;1899041;74;21187;-84
2022/09/03 04:11:49;;;;;;;13.55;6.42;;;;;;;;;;1910463;74;21137;-85
2022/09/03 04:14:21;;;;;;;9.45;6.35;;;;;;;;;;1931706;73;21083;-84
2022/09/03 04:16:51;;;;;;;12.20;6.55;;;;;;;;;;1932013;73;21127;-85
2022/09/03 04:19:28;;;;;;;8.28;5.90;;;;;;;;;;1885813;75;21090;-85
2022/09/03 04:21:56;;;;;;;7.83;5.78;;;;;;;;;;1907375;73;21142;-86
2022/09/03 04:24:26;;;;;;;9.80;6.65;;;;;;;;;;1922604;73;21139;-84
2022/09/03 04:26:58;;;;;;;8.33;5.75;;;;;;;;;;1925042;73;21096;-85
2022/09/03 04:29:29;;;;;;;8.63;5.67;;;;;;;;;;1897014;74;21166;-85
2022/09/03 04:34:32;;;;;;;8.60;5.37;;;;;;;;;;1884582;74;21217;-85
2022/09/03 04:37:02;;;;;;;6.92;5.75;;;;;;;;;;1885296;74;21189;-86
2022/09/03 04:39:33;;;;;;;6.85;5.12;;;;;;;;;;1889693;74;21060;-83
2022/09/03 04:42:03;;;;;;;6.10;4.92;;;;;;;;;;1917889;74;21127;-83
2022/09/03 04:44:37;;;;;;;7.85;5.22;;;;;;;;;;1939465;73;21184;-84
2022/09/03 04:47:05;;;;;;;7.37;5.30;;;;;;;;;;1943533;73;21127;-86
2022/09/03 04:49:36;;;;;;;6.22;4.90;;;;;;;;;;1953553;73;21158;-85
2022/09/03 04:52:06;;;;;;;6.00;4.60;;;;;;;;;;1943270;73;21211;-83
2022/09/03 04:54:37;;;;;;;7.30;4.97;;;;;;;;;;1938765;73;21494;-84
2022/09/03 04:57:09;;;;;;;7.65;5.22;;;;;;;;;;1933016;73;21157;-84
2022/09/03 04:59:58;;;;;;;6.12;4.95;;;;;;;;;;1899237;74;21146;-84
2022/09/03 05:02:37;;;;;;;7.37;5.07;;;;;;;;;;1912271;73;21206;-84
2022/09/03 05:05:10;;;;;;;6.78;5.10;;;;;;;;;;1913425;73;21167;-84
2022/09/03 05:07:40;;;;;;;6.92;4.58;;;;;;;;;;1924234;73;21189;-86
2022/09/03 05:10:12;;;;;;;6.12;4.50;;;;;;;;;;1893331;74;21139;-86
2022/09/03 05:12:42;;;;;;;6.58;4.58;;;;;;;;;;1920101;74;21179;-84
2022/09/03 05:15:14;;;;;;;7.42;4.92;;;;;;;;;;1919967;74;21120;-85
2022/09/03 05:17:45;;;;;;;5.83;4.70;;;;;;;;;;1888017;74;21166;-85
2022/09/03 05:20:16;;;;;;;9.20;5.22;;;;;;;;;;1885174;74;21162;-86
2022/09/03 05:22:46;;;;;;;11.83;5.80;;;;;;;;;;1890357;73;21095;-85
2022/09/03 05:25:19;;;;;;;6.72;4.83;;;;;;;;;;1888096;74;21233;-86
2022/09/03 05:27:50;;;;;;;11.30;5.85;;;;;;;;;;1921247;74;21126;-73
2022/09/03 05:30:22;;;;;;;6.60;5.03;;;;;;;;;;1923736;73;21986;-73
2022/09/03 05:32:52;;;;;;;10.15;6.25;;;;;;;;;;1905909;74;21170;-73
2022/09/03 05:35:23;;;;;;;6.22;5.20;;;;;;;;;;1903923;74;21080;-73
2022/09/03 05:37:55;;;;;;;7.87;5.70;;;;;;;;;;1905501;74;21646;-74
2022/09/03 05:40:25;;;;;;;9.43;5.62;;;;;;;;;;1929161;73;21149;-75
2022/09/03 05:42:57;;;;;;;7.70;6.53;;;;;;;;;;1902399;74;21674;-73
2022/09/03 05:45:28;;;;;;;7.62;5.85;;;;;;;;;;1916010;75;21528;-74
2022/09/03 05:48:00;;;;;;;6.87;5.42;;;;;;;;;;1886870;76;21158;-74
2022/09/03 05:50:30;;;;;;;8.38;5.67;;;;;;;;;;1890864;76;21676;-74
2022/09/03 05:53:01;;;;;;;7.83;5.72;;;;;;;;;;1890306;76;21638;-74
2022/09/03 05:55:31;;;;;;;7.58;4.87;;;;;;;;;;1921466;73;21218;-74
2022/09/03 05:58:02;;;;;;;8.23;5.85;;;;;;;;;;1918283;73;21217;-74
2022/09/03 06:00:32;;;;;;;6.70;5.65;;;;;;;;;;1922363;73;21630;-73
2022/09/03 06:03:03;;;;;;;7.65;5.70;;;;;;;;;;1922430;74;21174;-75
2022/09/03 06:05:34;;;;;;;6.78;5.55;;;;;;;;;;1920989;74;21224;-73
2022/09/03 06:08:07;;;;;;;8.95;6.05;;;;;;;;;;1917546;74;21078;-73
2022/09/03 06:10:38;;;;;;;6.90;5.55;;;;;;;;;;1885616;76;21269;-73
2022/09/03 06:13:10;;;;;;;6.40;5.67;;;;;;;;;;1915673;73;21226;-73
2022/09/03 06:15:43;;;;;;;10.13;6.45;;;;;;;;;;1908748;74;21213;-74
2022/09/03 06:18:15;;;;;;;8.08;5.85;;;;;;;;;;1918111;74;21590;-72
2022/09/03 06:20:46;;;;;;;8.35;5.42;;;;;;;;;;1888956;74;21198;-73
2022/09/03 06:23:17;;;;;;;5.60;4.97;;;;;;;;;;1935096;73;21213;-71
2022/09/03 06:25:47;;;;;;;6.45;5.40;;;;;;;;;;1920182;73;21100;-72
2022/09/03 06:28:17;;;;;;;7.25;5.50;;;;;;;;;;1920222;74;21205;-72
2022/09/03 06:30:52;;;;;;;5.62;5.03;;;;;;;;;;1919685;73;21130;-72
2022/09/03 06:33:25;;;;;;;5.58;5.05;;;;;;;;;;1933668;73;21453;-72
2022/09/03 06:35:58;;;;;;;8.50;5.97;;;;;;;;;;1903607;74;21165;-73
2022/09/03 06:38:36;;;;;;;8.00;5.42;;;;;;;;;;1920811;74;21068;-72
2022/09/03 06:41:03;;;;;;;7.33;5.20;;;;;;;;;;1923761;73;21134;-74
2022/09/03 06:43:34;;;;;;;6.53;5.33;;;;;;;;;;1887236;74;21181;-73
2022/09/03 06:46:05;;;;;;;7.03;5.08;;;;;;;;;;1919176;74;21128;-73
2022/09/03 06:48:36;;;;;;;7.03;5.42;;;;;;;;;;1925898;73;21135;-73
2022/09/03 06:51:08;;;;;;;6.17;4.83;;;;;;;;;;1921580;73;21205;-72
2022/09/03 06:53:40;;;;;;;6.92;5.20;;;;;;;;;;1920561;74;21166;-74
2022/09/03 06:56:12;;;;;;;9.28;6.40;;;;;;;;;;1931625;73;22360;-74
2022/09/03 06:58:45;;;;;;;7.53;5.12;;;;;;;;;;1919412;73;21131;-72
2022/09/03 07:01:17;;;;;;;6.58;5.40;;;;;;;;;;1921267;73;21134;-73
2022/09/03 07:03:49;;;;;;;7.87;5.60;;;;;;;;;;1915299;75;21192;-74
2022/09/03 07:06:20;;;;;;;6.50;5.28;;;;;;;;;;1916024;75;21675;-72
2022/09/03 07:08:50;;;;;;;5.92;5.33;;;;;;;;;;1913935;75;21123;-72
2022/09/03 07:11:24;;;;;;;5.80;5.17;;;;;;;;;;1914841;75;21095;-74
2022/09/03 07:13:54;;;;;;;6.70;5.20;;;;;;;;;;1914246;75;21127;-73
2022/09/03 07:16:26;;;;;;;6.47;4.87;;;;;;;;;;1912310;75;21096;-73
2022/09/03 07:18:57;;;;;;;5.35;4.80;;;;;;;;;;1910389;75;21069;-73
2022/09/03 07:21:28;;;;;;;7.75;5.33;;;;;;;;;;1914900;75;21193;-74
2022/09/03 07:23:58;;;;;;;6.90;5.28;;;;;;;;;;1931191;73;21651;-73
2022/09/03 07:26:30;;;;;;;6.10;5.40;;;;;;;;;;1933719;74;21275;-73
2022/09/03 07:29:00;;;;;;;6.35;5.03;;;;;;;;;;1928370;74;21251;-73
2022/09/03 07:31:32;;;;;;;5.53;4.97;;;;;;;;;;1929019;74;21093;-74
2022/09/03 07:34:04;;;;;;;5.45;4.90;;;;;;;;;;1928657;74;21552;-73
2022/09/03 07:36:37;;;;;;;6.03;5.42;;;;;;;;;;1931646;74;21159;-74
2022/09/03 07:39:11;;;;;;;6.55;5.20;;;;;;;;;;1928473;74;21132;-73
2022/09/03 07:41:43;;;;;;;7.30;5.30;;;;;;;;;;1932526;74;21103;-73
2022/09/03 07:44:18;;;;;;;6.00;5.40;;;;;;;;;;1934746;74;21111;-74
2022/09/03 07:46:46;;;;;;;6.17;4.70;;;;;;;;;;1934565;74;21150;-74
2022/09/03 07:49:17;;;;;;;9.05;5.33;;;;;;;;;;1935841;74;21114;-74
2022/09/03 07:51:49;;;;;;;7.00;5.62;;;;;;;;;;1935855;74;21220;-74
2022/09/03 07:54:20;;;;;;;5.47;4.42;;;;;;;;;;1936440;73;21134;-73
2022/09/03 07:56:50;;;;;;;9.08;5.65;;;;;;;;;;1934701;74;21184;-72
2022/09/03 07:59:21;;;;;;;9.90;5.75;;;;;;;;;;1935303;74;21197;-73
2022/09/03 08:01:52;;;;;;;6.50;5.83;;;;;;;;;;1935410;74;21138;-72
2022/09/03 08:04:22;;;;;;;6.08;4.97;;;;;;;;;;1930520;74;21080;-73
2022/09/03 08:06:55;;;;;;;6.30;5.70;;;;;;;;;;1934003;73;21150;-73
2022/09/03 08:09:24;;;;;;;9.23;6.00;;;;;;;;;;1948854;73;21157;-73
2022/09/03 08:11:54;;;;;;;5.65;5.00;;;;;;;;;;1936297;73;21650;-73
2022/09/03 08:14:25;;;;;;;9.60;5.30;;;;;;;;;;1949013;73;21083;-74
2022/09/03 08:17:06;;;;;;;8.63;5.83;;;;;;;;;;1938338;73;21654;-73
2022/09/03 08:19:36;;;;;;;6.22;5.62;;;;;;;;;;1930216;73;21072;-72
2022/09/03 08:22:09;;;;;;;7.80;6.03;;;;;;;;;;1934441;74;21121;-73
2022/09/03 08:24:40;;;;;;;7.75;6.10;;;;;;;;;;1936525;73;21131;-72
2022/09/03 08:27:11;;;;;;;7.22;6.53;;;;;;;;;;1946561;72;21142;-72
2022/09/03 08:29:41;;;;;;;7.08;6.37;;;;;;;;;;1923890;74;21202;-73
2022/09/03 08:32:11;;;;;;;8.00;6.10;;;;;;;;;;1915270;74;21134;-74
2022/09/03 08:34:42;;;;;;;7.95;6.10;;;;;;;;;;1940791;73;21470;-74
2022/09/03 08:37:12;;;;;;;7.22;6.30;;;;;;;;;;1938729;72;21146;-74
2022/09/03 08:39:43;;;;;;;6.67;5.87;;;;;;;;;;1940242;72;21153;-73
2022/09/03 08:42:15;;;;;;;6.62;5.47;;;;;;;;;;1936415;72;21105;-73
2022/09/03 08:44:46;;;;;;;6.97;5.20;;;;;;;;;;1943706;72;21278;-73
2022/09/03 08:47:19;;;;;;;6.35;5.42;;;;;;;;;;1938229;72;21164;-72
2022/09/03 08:49:51;;;;;;;5.75;5.15;;;;;;;;;;1946581;72;21157;-72
2022/09/03 08:52:22;;;;;;;5.75;5.08;;;;;;;;;;1933636;74;21104;-73
2022/09/03 08:54:54;;;;;;;6.03;5.20;;;;;;;;;;1940971;72;21118;-73
2022/09/03 08:57:25;;;;;;;5.72;5.03;;;;;;;;;;1936167;72;21213;-70
2022/09/03 08:59:55;;;;;;;7.30;5.80;;;;;;;;;;1919136;73;21162;-73
2022/09/03 09:02:27;;;;;;;6.42;5.00;;;;;;;;;;1937586;74;21173;-70
2022/09/03 09:04:58;;;;;;;5.90;4.80;;;;;;;;;;1929153;73;21078;-74
2022/09/03 09:07:31;;;;;;;6.37;4.83;;;;;;;;;;1891636;74;21242;-73
2022/09/03 09:10:02;;;;;;;6.70;5.12;;;;;;;;;;1897606;74;21627;-73
2022/09/03 09:12:34;;;;;;;5.75;5.10;;;;;;;;;;1899385;74;21126;-73
2022/09/03 09:15:07;;;;;;;5.97;4.45;;;;;;;;;;1900865;74;21855;-72
2022/09/03 09:17:41;;;;;;;8.60;5.22;;;;;;;;;;1898030;75;21139;-73
2022/09/03 09:20:13;;;;;;;7.10;5.53;;;;;;;;;;1939382;72;21106;-73
2022/09/03 09:22:45;;;;;;;8.70;5.58;;;;;;;;;;1906800;73;21111;-74
2022/09/03 09:25:17;;;;;;;7.62;5.22;;;;;;;;;;1883373;74;21194;-73
2022/09/03 09:27:50;;;;;;;7.80;5.55;;;;;;;;;;1917702;74;21123;-72
2022/09/03 09:30:20;;;;;;;6.75;5.00;;;;;;;;;;1902330;73;21240;-73
2022/09/03 09:32:50;;;;;;;5.92;5.15;;;;;;;;;;1906353;73;21165;-72
2022/09/03 09:35:20;;;;;;;6.92;5.28;;;;;;;;;;1911114;75;21131;-72
2022/09/03 09:37:55;;;;;;;7.33;5.45;;;;;;;;;;1910654;73;21242;-72
2022/09/03 09:40:27;;;;;;;5.90;5.30;;;;;;;;;;1905651;73;21128;-72
2022/09/03 09:42:58;;;;;;;6.22;5.58;;;;;;;;;;1908774;74;21072;-72
2022/09/03 09:45:33;;;;;;;8.00;5.28;;;;;;;;;;1903874;75;21594;-72
2022/09/03 09:48:02;;;;;;;7.83;5.75;;;;;;;;;;1906273;73;21120;-72
2022/09/03 09:50:33;;;;;;;6.47;5.45;;;;;;;;;;1915555;73;21056;-73
2022/09/03 09:53:13;;;;;;;8.83;5.20;;;;;;;;;;1909672;73;21185;-72
2022/09/03 09:55:37;;;;;;;8.53;5.50;;;;;;;;;;1906140;74;21128;-73
2022/09/03 09:58:09;;;;;;;8.50;5.62;;;;;;;;;;1909400;73;21135;-71
2022/09/03 10:00:41;;;;;;;6.80;5.15;;;;;;;;;;1923899;73;21199;-73
2022/09/03 10:03:12;;;;;;;9.28;5.50;;;;;;;;;;1913987;73;21148;-73
2022/09/03 10:05:43;;;;;;;7.10;5.62;;;;;;;;;;1921226;73;21143;-73
2022/09/03 10:08:14;;;;;;;7.67;5.10;;;;;;;;;;1895486;74;21552;-73
2022/09/03 10:10:48;;;;;;;6.58;5.45;;;;;;;;;;1879545;74;21132;-74
2022/09/03 10:13:20;;;;;;;6.97;5.00;;;;;;;;;;1925510;73;21253;-74
2022/09/03 10:15:51;;;;;;;7.55;4.97;;;;;;;;;;1919124;73;21137;-74
2022/09/03 10:18:26;;;;;;;7.45;4.85;;;;;;;;;;1924236;73;21142;-73
2022/09/03 10:20:57;;;;;;;7.53;4.95;;;;;;;;;;1917125;73;21765;-73
2022/09/03 10:23:27;;;;;;;9.28;4.65;;;;;;;;;;1936701;73;21158;-74
2022/09/03 10:26:03;;;;;;;7.87;4.95;;;;;;;;;;1919534;74;21116;-73
2022/09/03 10:28:36;;;;;;;6.30;5.12;;;;;;;;;;1910670;73;21108;-73
2022/09/03 10:31:03;;;;;;;10.60;4.87;;;;;;;;;;1913764;73;21093;-71
2022/09/03 10:33:37;;;;;;;5.83;4.60;;;;;;;;;;1910221;73;21233;-84
2022/09/03 10:36:07;;;;;;;6.35;4.95;;;;;;;;;;1917512;73;21748;-83
2022/09/03 10:38:38;;;;;;;6.40;4.97;;;;;;;;;;1915140;73;21151;-84
2022/09/03 10:41:10;;;;;;;9.25;5.47;;;;;;;;;;1913546;73;21195;-84
2022/09/03 10:43:44;;;;;;;8.85;6.55;;;;;;;;;;1911184;73;21159;-84
2022/09/03 10:46:17;;;;;;;14.35;7.28;;;;;;;;;;1916767;73;21225;-83
2022/09/03 10:48:50;;;;;;;9.60;6.42;;;;;;;;;;1913498;73;21197;-83
2022/09/03 10:51:22;;;;;;;7.65;5.40;;;;;;;;;;1909815;73;21131;-84
2022/09/03 10:53:53;;;;;;;6.28;5.08;;;;;;;;;;1916118;73;21080;-84
2022/09/03 10:56:24;;;;;;;6.75;5.10;;;;;;;;;;1916763;73;21138;-85
2022/09/03 10:58:56;;;;;;;7.58;4.95;;;;;;;;;;1931306;73;21170;-84
2022/09/03 11:01:26;;;;;;;6.80;4.70;;;;;;;;;;1884214;74;21248;-84
2022/09/03 11:03:57;;;;;;;8.95;5.40;;;;;;;;;;1921941;73;21083;-84
2022/09/03 11:06:29;;;;;;;6.92;4.75;;;;;;;;;;1918132;73;21194;-85
2022/09/03 11:09:00;;;;;;;9.58;6.00;;;;;;;;;;1912307;73;21074;-84
2022/09/03 11:11:33;;;;;;;8.30;6.45;;;;;;;;;;1887867;74;21143;-84
2022/09/03 11:14:03;;;;;;;9.48;5.47;;;;;;;;;;1915371;74;21122;-84
2022/09/03 11:16:35;;;;;;;9.35;5.28;;;;;;;;;;1912357;74;21095;-84
2022/09/03 11:19:07;;;;;;;7.05;4.35;;;;;;;;;;1923050;73;21185;-86
2022/09/03 11:21:40;;;;;;;7.60;4.78;;;;;;;;;;1895558;74;21147;-83
2022/09/03 11:24:11;;;;;;;5.92;4.40;;;;;;;;;;1921481;73;21147;-85
2022/09/03 11:26:42;;;;;;;6.40;4.22;;;;;;;;;;1906628;73;21210;-83
2022/09/03 11:29:14;;;;;;;5.60;4.42;;;;;;;;;;1917158;73;21146;-86
2022/09/03 11:31:47;;;;;;;5.50;4.12;;;;;;;;;;1917445;73;21052;-84
2022/09/03 11:34:19;;;;;;;7.40;4.67;;;;;;;;;;1912318;74;21150;-84
2022/09/03 11:36:50;;;;;;;7.25;5.30;;;;;;;;;;1875565;76;21115;-84
2022/09/03 11:39:22;;;;;;;5.83;4.58;;;;;;;;;;1880744;75;21999;-84
2022/09/03 11:41:54;;;;;;;7.40;5.20;;;;;;;;;;1872462;76;21084;-85
2022/09/03 11:44:24;;;;;;;7.92;4.95;;;;;;;;;;1876960;76;21229;-84
2022/09/03 11:46:55;;;;;;;7.87;4.45;;;;;;;;;;1885667;75;21218;-85
2022/09/03 11:49:27;;;;;;;6.60;4.55;;;;;;;;;;1917390;73;21562;-84
2022/09/03 11:51:59;;;;;;;6.35;4.37;;;;;;;;;;1875901;76;21123;-86
2022/09/03 11:54:31;;;;;;;9.30;7.62;;;;;;;;;;1928155;73;21080;-84
2022/09/03 11:57:02;;;;;;;9.80;7.17;;;;;;;;;;1922139;73;21169;-85
2022/09/03 11:59:33;;;;;;;8.58;6.05;;;;;;;;;;1923313;73;21201;-84
2022/09/03 12:02:05;;;;;;;6.87;5.60;;;;;;;;;;1928755;73;21118;-85
2022/09/03 12:04:36;;;;;;;6.70;5.37;;;;;;;;;;1927656;73;21174;-85
2022/09/03 12:07:08;;;;;;;8.30;5.30;;;;;;;;;;1916739;73;21181;-84
2022/09/03 12:09:39;;;;;;;7.22;4.97;;;;;;;;;;1932203;73;21178;-83
2022/09/03 12:12:12;;;;;;;7.70;4.45;;;;;;;;;;1918067;73;21634;-85
2022/09/03 12:14:42;;;;;;;6.78;4.30;;;;;;;;;;1914767;73;21227;-84
2022/09/03 12:17:14;;;;;;;6.62;4.70;;;;;;;;;;1915513;73;21221;-86
2022/09/03 12:19:44;;;;;;;7.42;4.95;;;;;;;;;;1888229;74;21184;-84
2022/09/03 12:22:15;;;;;;;7.47;5.42;;;;;;;;;;1922738;73;21146;-85
2022/09/03 12:24:45;;;;;;;7.05;5.10;;;;;;;;;;1929658;73;21206;-85
2022/09/03 12:27:17;;;;;;;7.50;5.08;;;;;;;;;;1927597;73;21120;-84
2022/09/03 12:29:54;;;;;;;6.15;4.90;;;;;;;;;;1895724;74;21077;-83
2022/09/03 12:32:23;;;;;;;8.03;5.33;;;;;;;;;;1929377;73;21094;-85
2022/09/03 12:34:53;;;;;;;5.85;4.50;;;;;;;;;;1927373;74;21117;-82
2022/09/03 12:37:25;;;;;;;9.15;5.47;;;;;;;;;;1920579;73;21059;-84
2022/09/03 12:39:56;;;;;;;9.45;6.42;;;;;;;;;;1920938;73;21192;-86
2022/09/03 12:42:29;;;;;;;8.30;6.35;;;;;;;;;;1929802;73;21120;-84
2022/09/03 12:45:02;;;;;;;10.88;7.15;;;;;;;;;;1924916;73;21152;-84
2022/09/03 12:47:34;;;;;;;12.82;8.68;;;;;;;;;;1926445;73;21148;-83
2022/09/03 12:50:07;;;;;;;17.70;10.28;;;;;;;;;;1920816;73;21152;-84
2022/09/03 12:52:40;;;;;;;18.42;9.95;;;;;;;;;;1929726;73;21604;-85
2022/09/03 12:55:11;;;;;;;17.30;9.15;;;;;;;;;;1929849;73;21235;-83
2022/09/03 12:57:43;;;;;;;12.03;8.20;;;;;;;;;;1925130;73;21198;-84
2022/09/03 13:00:17;;;;;;;10.85;6.70;;;;;;;;;;1894051;75;21298;-83
2022/09/03 13:02:47;;;;;;;8.70;5.92;;;;;;;;;;1889023;74;21246;-83
2022/09/03 13:05:19;;;;;;;9.25;5.87;;;;;;;;;;1899224;74;21108;-83
2022/09/03 13:07:51;;;;;;;8.40;5.72;;;;;;;;;;1928908;73;21061;-84
2022/09/03 13:10:23;;;;;;;11.38;7.70;;;;;;;;;;1934753;73;21197;-85
2022/09/03 13:12:55;;;;;;;9.05;7.00;;;;;;;;;;1927975;73;21145;-85
2022/09/03 13:15:26;;;;;;;6.53;4.45;;;;;;;;;;1930986;73;21598;-84
2022/09/03 13:17:57;;;;;;;7.25;4.50;;;;;;;;;;1900095;74;21161;-84
2022/09/03 13:20:30;;;;;;;9.35;5.85;;;;;;;;;;1932535;73;21092;-85
2022/09/03 13:23:01;;;;;;;8.03;6.03;;;;;;;;;;1930335;73;21539;-85
2022/09/03 13:25:33;;;;;;;9.73;5.22;;;;;;;;;;1888777;75;21155;-84
2022/09/03 13:28:06;;;;;;;7.10;4.87;;;;;;;;;;1901376;73;21156;-84
2022/09/03 13:30:36;;;;;;;6.92;5.00;;;;;;;;;;1918006;74;21162;-85
2022/09/03 13:33:08;;;;;;;7.30;5.58;;;;;;;;;;1906917;74;21160;-85
2022/09/03 13:35:40;;;;;;;7.55;4.70;;;;;;;;;;1906517;74;21151;-85
2022/09/03 13:38:13;;;;;;;7.47;4.70;;;;;;;;;;1924562;73;21494;-85
2022/09/03 13:40:44;;;;;;;6.50;4.70;;;;;;;;;;1921245;73;21652;-85
2022/09/03 13:43:16;;;;;;;7.87;5.55;;;;;;;;;;1884825;74;21209;-84
2022/09/03 13:45:50;;;;;;;12.25;8.25;;;;;;;;;;1877170;74;21115;-84
2022/09/03 13:50:59;;;;;;;9.48;4.50;;;;;;;;;;1894171;74;21105;-84
2022/09/03 13:53:31;;;;;;;7.60;4.87;;;;;;;;;;1931003;73;21069;-84
2022/09/03 13:56:04;;;;;;;11.15;6.00;;;;;;;;;;1910435;73;21149;-84
2022/09/03 13:58:37;;;;;;;10.85;5.87;;;;;;;;;;1926144;73;21170;-84
2022/09/03 14:01:08;;;;;;;8.53;4.67;;;;;;;;;;1921839;73;21201;-83
2022/09/03 14:03:40;;;;;;;9.93;4.53;;;;;;;;;;1923959;73;21151;-83
2022/09/03 14:06:13;;;;;;;7.17;3.98;;;;;;;;;;1911130;73;21222;-84
2022/09/03 14:08:50;;;;;;;5.92;4.03;;;;;;;;;;1886019;74;21205;-84
2022/09/03 14:11:17;;;;;;;5.65;3.60;;;;;;;;;;1879570;74;21898;-84
2022/09/03 14:13:49;;;;;;;5.50;3.45;;;;;;;;;;1917891;73;21633;-83
2022/09/03 14:16:24;;;;;;;5.37;3.10;;;;;;;;;;1892502;74;21189;-83
2022/09/03 14:18:53;;;;;;;6.85;3.55;;;;;;;;;;1916471;73;21201;-84
2022/09/03 14:21:28;;;;;;;6.72;3.45;;;;;;;;;;1919213;73;21785;-84
2022/09/03 14:24:02;;;;;;;10.10;4.20;;;;;;;;;;1917927;73;21624;-84
2022/09/03 14:26:35;;;;;;;6.08;3.87;;;;;;;;;;1916335;73;21456;-84
2022/09/03 14:29:07;;;;;;;4.47;3.50;;;;;;;;;;1900871;74;21248;-84
2022/09/03 14:31:40;;;;;;;5.92;4.12;;;;;;;;;;1887051;75;21223;-84
2022/09/03 14:34:11;;;;;;;5.83;4.05;;;;;;;;;;1896194;74;21185;-84
2022/09/03 14:36:42;;;;;;;8.78;4.40;;;;;;;;;;1939001;73;21215;-84
2022/09/03 14:39:12;;;;;;;6.62;4.05;;;;;;;;;;1923895;73;21141;-85
2022/09/03 14:41:44;;;;;;;9.85;4.35;;;;;;;;;;1924591;73;21197;-85
2022/09/03 14:44:18;;;;;;;8.03;4.17;;;;;;;;;;1937592;73;21199;-82
2022/09/03 14:49:52;;;;;;;6.47;4.35;;;;;;;;;;1786135;77;21270;-82
2022/09/03 14:52:31;;;;;;;5.90;4.17;;;;;;;;;;1823928;76;21237;-83
2022/09/03 14:55:09;;;;;;;6.35;4.17;;;;;;;;;;1807378;78;21099;-82
2022/09/03 14:57:41;;;;;;;6.00;4.00;;;;;;;;;;1832560;77;21206;-83
2022/09/03 15:00:13;;;;;;;5.78;3.52;;;;;;;;;;1834473;76;21143;-84
2022/09/03 15:02:46;;;;;;;4.37;3.45;;;;;;;;;;1833820;76;21654;-83
2022/09/03 15:05:19;;;;;;;5.35;3.60;;;;;;;;;;1799351;78;21190;-84
2022/09/03 15:07:56;;;;;;;4.75;3.27;;;;;;;;;;1845755;76;21711;-84
2022/09/03 15:10:28;;;;;;;5.00;3.02;;;;;;;;;;1840723;76;21116;-85
2022/09/03 15:12:59;;;;;;;6.87;3.30;;;;;;;;;;1845281;76;21117;-85
2022/09/03 15:15:31;;;;;;;5.45;3.12;;;;;;;;;;1839712;76;21133;-84